TimeEST,TemperatureF,Dew PointF,Humidity,Sea Level PressureIn,VisibilityMPH,Wind Direction,Wind SpeedMPH,Gust SpeedMPH,PrecipitationIn,Events,Conditions,WindDirDegrees,DateUTC
12:27 AM,21.2,12.2,68,30.23,3.0,WNW,11.5,21.9,0.00,Snow,Light Snow,300,2013-02-21 05:27:00
12:48 AM,21.2,10.4,63,30.23,5.0,NW,15.0,20.7,0.00,Snow,Light Snow,320,2013-02-21 05:48:00
12:53 AM,21.9,10.9,63,30.27,5.0,NW,13.8,20.7,0.00,Snow,Light Snow,320,2013-02-21 05:53:00
1:46 AM,21.2,12.2,68,30.24,4.0,NW,12.7,-,0.00,Snow,Light Snow,310,2013-02-21 06:46:00
1:53 AM,21.9,12.0,66,30.28,4.0,NW,8.1,-,0.00,Snow,Light Snow,310,2013-02-21 06:53:00
2:48 AM,21.2,12.2,68,30.26,2.5,NW,10.4,-,0.00,Snow,Light Snow,310,2013-02-21 07:48:00
2:49 AM,21.9,12.9,68,30.30,2.5,NW,12.7,-,0.00,Snow,Light Snow,310,2013-02-21 07:49:00
2:53 AM,21.9,12.9,68,30.30,2.5,NW,12.7,-,0.00,Snow,Light Snow,310,2013-02-21 07:53:00
3:27 AM,21.2,12.2,68,30.26,5.0,NW,9.2,-,0.00,Snow,Light Snow,310,2013-02-21 08:27:00
3:53 AM,21.9,12.0,66,30.28,7.0,NW,9.2,-,0.00,Snow,Light Snow,320,2013-02-21 08:53:00
4:53 AM,21.0,12.0,68,30.30,7.0,NW,9.2,-,0.00,Snow,Light Snow,320,2013-02-21 09:53:00
5:53 AM,21.9,12.0,66,30.32,9.0,WNW,8.1,-,0.00,Snow,Light Snow,300,2013-02-21 10:53:00
6:53 AM,21.9,12.0,66,30.33,7.0,NW,9.2,-,0.00,Snow,Light Snow,320,2013-02-21 11:53:00
7:53 AM,21.9,12.0,66,30.38,8.0,NW,10.4,-,0.00,Snow,Light Snow,320,2013-02-21 12:53:00
8:53 AM,21.9,12.0,66,30.37,9.0,North,12.7,-,0.00,Snow,Light Snow,350,2013-02-21 13:53:00
9:53 AM,21.9,12.0,66,30.38,9.0,North,10.4,-,0.00,Snow,Light Snow,350,2013-02-21 14:53:00
10:53 AM,21.9,10.9,63,30.40,9.0,North,8.1,-,0.00,Snow,Light Snow,350,2013-02-21 15:53:00
11:53 AM,23.0,10.4,59,30.37,9.0,North,4.6,-,N/A,,Overcast,360,2013-02-21 16:53:00
12:53 PM,24.1,10.9,57,30.38,10.0,NE,5.8,-,N/A,,Overcast,40,2013-02-21 17:53:00
1:53 PM,24.1,10.9,57,30.40,10.0,Calm,Calm,-,N/A,,Overcast,0,2013-02-21 18:53:00
2:02 PM,26.6,10.4,51,30.35,10.0,North,3.5,-,N/A,,Overcast,360,2013-02-21 19:02:00
2:53 PM,26.1,10.9,53,30.36,10.0,Calm,Calm,-,N/A,,Mostly Cloudy,0,2013-02-21 19:53:00
3:53 PM,26.1,10.9,53,30.31,10.0,NE,9.2,-,N/A,,Mostly Cloudy,40,2013-02-21 20:53:00
4:53 PM,25.0,10.0,53,30.37,10.0,NE,8.1,-,N/A,,Mostly Cloudy,40,2013-02-21 21:53:00
5:53 PM,23.0,12.0,63,30.39,10.0,East,9.2,-,N/A,,Mostly Cloudy,80,2013-02-21 22:53:00
6:53 PM,21.9,12.0,66,30.38,10.0,ENE,10.4,-,N/A,,Mostly Cloudy,70,2013-02-21 23:53:00
7:53 PM,21.9,12.9,68,30.37,10.0,East,9.2,-,N/A,,Mostly Cloudy,80,2013-02-22 00:53:00
8:36 PM,23.0,12.2,63,30.31,10.0,ENE,10.4,17.3,N/A,,Overcast,60,2013-02-22 01:36:00
8:53 PM,23.0,14.0,68,30.35,10.0,ENE,11.5,-,N/A,,Overcast,60,2013-02-22 01:53:00
9:53 PM,23.0,15.1,72,30.34,10.0,ENE,9.2,-,N/A,,Overcast,60,2013-02-22 02:53:00
10:53 PM,23.0,16.0,74,30.32,10.0,ENE,10.4,-,N/A,,Overcast,70,2013-02-22 03:53:00
11:53 PM,23.0,16.0,74,30.31,10.0,ENE,9.2,-,N/A,,Overcast,70,2013-02-22 04:53:00